sensor_id;sensor_type;location;lat;lon;timestamp;P1;durP1;ratioP1;P2;durP2;ratioP2
78108;SDS011;67354;48.068;11.612;2023-02-15T07:33:09;17.73;;;11.38;;
78108;SDS011;67354;48.068;11.612;2023-02-15T07:35:50;15.13;;;9.65;;
78108;SDS011;67354;48.068;11.612;2023-02-15T07:38:17;19.15;;;11.23;;
78108;SDS011;67354;48.068;11.612;2023-02-15T07:40:43;18.48;;;10.07;;
78108;SDS011;67354;48.068;11.612;2023-02-15T07:43:09;20.02;;;10.65;;
78108;SDS011;67354;48.068;11.612;2023-02-15T07:45:34;18.38;;;9.98;;
78108;SDS011;67354;48.068;11.612;2023-02-15T07:48:00;18.83;;;10.40;;
78108;SDS011;67354;48.068;11.612;2023-02-15T07:50:26;18.73;;;10.82;;
78108;SDS011;67354;48.068;11.612;2023-02-15T07:52:51;18.20;;;10.65;;
78108;SDS011;67354;48.068;11.612;2023-02-15T07:55:17;19.77;;;10.77;;
78108;SDS011;67354;48.068;11.612;2023-02-15T07:57:46;15.65;;;9.85;;
78108;SDS011;67354;48.068;11.612;2023-02-15T08:00:13;14.52;;;9.30;;
78108;SDS011;67354;48.068;11.612;2023-02-15T08:02:40;15.57;;;9.32;;
78108;SDS011;67354;48.068;11.612;2023-02-15T08:05:06;13.95;;;9.20;;
78108;SDS011;67354;48.068;11.612;2023-02-15T08:07:32;13.15;;;7.80;;
78108;SDS011;67354;48.068;11.612;2023-02-15T08:09:57;16.10;;;9.53;;
78108;SDS011;67354;48.068;11.612;2023-02-15T08:12:25;15.60;;;10.35;;
78108;SDS011;67354;48.068;11.612;2023-02-15T08:14:51;17.98;;;11.07;;
78108;SDS011;67354;48.068;11.612;2023-02-15T08:17:16;16.77;;;11.70;;
78108;SDS011;67354;48.068;11.612;2023-02-15T08:19:42;16.67;;;10.10;;
78108;SDS011;67354;48.068;11.612;2023-02-15T08:22:10;14.88;;;9.77;;
78108;SDS011;67354;48.068;11.612;2023-02-15T08:24:38;15.25;;;8.98;;
78108;SDS011;67354;48.068;11.612;2023-02-15T08:27:04;14.18;;;9.00;;
78108;SDS011;67354;48.068;11.612;2023-02-15T08:29:31;14.32;;;9.55;;
78108;SDS011;67354;48.068;11.612;2023-02-15T08:31:58;13.13;;;9.50;;
78108;SDS011;67354;48.068;11.612;2023-02-15T08:34:31;12.35;;;9.25;;
78108;SDS011;67354;48.068;11.612;2023-02-15T08:36:59;14.38;;;9.82;;
78108;SDS011;67354;48.068;11.612;2023-02-15T08:39:25;12.98;;;7.53;;
78108;SDS011;67354;48.068;11.612;2023-02-15T08:41:50;8.77;;;5.22;;
78108;SDS011;67354;48.068;11.612;2023-02-15T08:44:16;7.27;;;5.43;;
78108;SDS011;67354;48.068;11.612;2023-02-15T08:46:43;7.40;;;4.88;;
78108;SDS011;67354;48.068;11.612;2023-02-15T08:49:15;7.50;;;6.28;;
78108;SDS011;67354;48.068;11.612;2023-02-15T08:51:41;9.23;;;5.72;;
78108;SDS011;67354;48.068;11.612;2023-02-15T08:54:08;16.42;;;5.43;;
78108;SDS011;67354;48.068;11.612;2023-02-15T08:56:36;4.35;;;3.75;;
78108;SDS011;67354;48.068;11.612;2023-02-15T08:59:03;6.70;;;4.30;;
78108;SDS011;67354;48.068;11.612;2023-02-15T09:01:30;7.63;;;4.80;;
78108;SDS011;67354;48.068;11.612;2023-02-15T09:04:01;8.93;;;5.93;;
78108;SDS011;67354;48.068;11.612;2023-02-15T09:06:27;7.45;;;4.25;;
78108;SDS011;67354;48.068;11.612;2023-02-15T09:08:53;7.50;;;4.85;;
78108;SDS011;67354;48.068;11.612;2023-02-15T09:11:23;6.90;;;5.28;;
78108;SDS011;67354;48.068;11.612;2023-02-15T09:13:51;15.38;;;8.75;;
78108;SDS011;67354;48.068;11.612;2023-02-15T09:16:18;11.77;;;8.15;;
78108;SDS011;67354;48.068;11.612;2023-02-15T09:18:45;13.63;;;8.45;;
78108;SDS011;67354;48.068;11.612;2023-02-15T09:21:15;14.18;;;9.60;;
78108;SDS011;67354;48.068;11.612;2023-02-15T09:23:42;21.88;;;15.27;;
78108;SDS011;67354;48.068;11.612;2023-02-15T09:26:10;14.07;;;9.73;;
78108;SDS011;67354;48.068;11.612;2023-02-15T09:28:37;12.20;;;8.32;;
78108;SDS011;67354;48.068;11.612;2023-02-15T09:31:06;9.85;;;7.60;;
78108;SDS011;67354;48.068;11.612;2023-02-15T09:33:33;13.13;;;8.70;;
78108;SDS011;67354;48.068;11.612;2023-02-15T09:35:59;10.73;;;7.53;;
78108;SDS011;67354;48.068;11.612;2023-02-15T09:38:25;11.35;;;7.35;;
78108;SDS011;67354;48.068;11.612;2023-02-15T09:40:55;11.73;;;8.50;;
78108;SDS011;67354;48.068;11.612;2023-02-15T09:43:35;9.60;;;7.35;;
78108;SDS011;67354;48.068;11.612;2023-02-15T09:48:38;9.07;;;7.85;;
78108;SDS011;67354;48.068;11.612;2023-02-15T09:51:13;11.43;;;8.13;;
78108;SDS011;67354;48.068;11.612;2023-02-15T10:12:35;13.32;;;8.15;;
78108;SDS011;67354;48.068;11.612;2023-02-15T10:15:08;8.82;;;7.35;;
78108;SDS011;67354;48.068;11.612;2023-02-15T10:20:58;11.50;;;8.25;;
78108;SDS011;67354;48.068;11.612;2023-02-15T10:34:03;10.85;;;7.78;;
78108;SDS011;67354;48.068;11.612;2023-02-15T10:42:14;11.85;;;8.40;;
78108;SDS011;67354;48.068;11.612;2023-02-15T10:50:48;11.75;;;9.32;;
78108;SDS011;67354;48.068;11.612;2023-02-15T10:53:26;10.73;;;8.15;;
78108;SDS011;67354;48.068;11.612;2023-02-15T10:59:02;10.98;;;8.20;;
78108;SDS011;67354;48.068;11.612;2023-02-15T11:07:16;12.38;;;8.27;;
78108;SDS011;67354;48.068;11.612;2023-02-15T11:09:48;11.90;;;8.73;;
78108;SDS011;67354;48.068;11.612;2023-02-15T11:12:17;12.82;;;9.15;;
78108;SDS011;67354;48.068;11.612;2023-02-15T11:17:36;13.50;;;8.88;;
78108;SDS011;67354;48.068;11.612;2023-02-15T11:20:08;13.07;;;9.10;;
78108;SDS011;67354;48.068;11.612;2023-02-15T11:22:34;12.10;;;9.18;;
78108;SDS011;67354;48.068;11.612;2023-02-15T11:25:00;11.75;;;8.77;;
78108;SDS011;67354;48.068;11.612;2023-02-15T11:27:32;13.60;;;9.50;;
78108;SDS011;67354;48.068;11.612;2023-02-15T11:32:35;11.45;;;8.50;;
78108;SDS011;67354;48.068;11.612;2023-02-15T11:35:04;11.30;;;8.82;;
78108;SDS011;67354;48.068;11.612;2023-02-15T11:40:06;13.70;;;8.05;;
78108;SDS011;67354;48.068;11.612;2023-02-15T11:43:10;11.05;;;8.60;;
78108;SDS011;67354;48.068;11.612;2023-02-15T11:45:38;12.55;;;9.63;;
78108;SDS011;67354;48.068;11.612;2023-02-15T11:48:10;11.57;;;8.65;;
78108;SDS011;67354;48.068;11.612;2023-02-15T11:50:37;12.30;;;8.63;;
78108;SDS011;67354;48.068;11.612;2023-02-15T11:55:42;15.88;;;10.10;;
78108;SDS011;67354;48.068;11.612;2023-02-15T12:00:54;13.02;;;9.18;;
78108;SDS011;67354;48.068;11.612;2023-02-15T12:09:27;13.35;;;9.38;;
78108;SDS011;67354;48.068;11.612;2023-02-15T12:14:46;11.52;;;9.35;;
78108;SDS011;67354;48.068;11.612;2023-02-15T12:17:13;10.80;;;8.90;;
78108;SDS011;67354;48.068;11.612;2023-02-15T12:19:39;15.30;;;9.30;;
78108;SDS011;67354;48.068;11.612;2023-02-15T12:22:05;14.52;;;8.98;;
78108;SDS011;67354;48.068;11.612;2023-02-15T12:24:38;13.10;;;9.73;;
78108;SDS011;67354;48.068;11.612;2023-02-15T12:27:16;13.20;;;9.38;;
78108;SDS011;67354;48.068;11.612;2023-02-15T12:29:46;15.00;;;9.15;;
78108;SDS011;67354;48.068;11.612;2023-02-15T12:32:28;14.25;;;9.35;;
78108;SDS011;67354;48.068;11.612;2023-02-15T12:35:07;15.50;;;9.90;;
78108;SDS011;67354;48.068;11.612;2023-02-15T12:37:34;12.68;;;9.18;;
78108;SDS011;67354;48.068;11.612;2023-02-15T12:40:02;14.10;;;8.75;;
78108;SDS011;67354;48.068;11.612;2023-02-15T12:42:43;16.55;;;9.63;;
78108;SDS011;67354;48.068;11.612;2023-02-15T12:45:29;14.40;;;10.00;;
78108;SDS011;67354;48.068;11.612;2023-02-15T12:50:48;13.90;;;8.68;;
78108;SDS011;67354;48.068;11.612;2023-02-15T12:53:18;11.80;;;8.75;;
78108;SDS011;67354;48.068;11.612;2023-02-15T12:56:01;12.50;;;8.88;;
78108;SDS011;67354;48.068;11.612;2023-02-15T12:58:39;12.52;;;8.80;;
78108;SDS011;67354;48.068;11.612;2023-02-15T13:03:34;12.30;;;9.05;;
78108;SDS011;67354;48.068;11.612;2023-02-15T13:06:00;12.38;;;8.50;;
78108;SDS011;67354;48.068;11.612;2023-02-15T13:08:28;11.98;;;8.80;;
78108;SDS011;67354;48.068;11.612;2023-02-15T13:10:57;14.25;;;8.45;;
78108;SDS011;67354;48.068;11.612;2023-02-15T13:13:27;10.98;;;8.65;;
78108;SDS011;67354;48.068;11.612;2023-02-15T13:15:56;13.68;;;9.10;;
78108;SDS011;67354;48.068;11.612;2023-02-15T13:18:29;12.65;;;8.23;;
78108;SDS011;67354;48.068;11.612;2023-02-15T13:20:56;12.85;;;8.25;;
78108;SDS011;67354;48.068;11.612;2023-02-15T13:23:27;13.75;;;8.68;;
78108;SDS011;67354;48.068;11.612;2023-02-15T13:25:55;11.15;;;7.85;;
78108;SDS011;67354;48.068;11.612;2023-02-15T13:28:22;10.68;;;8.00;;
78108;SDS011;67354;48.068;11.612;2023-02-15T13:30:51;15.52;;;8.57;;
78108;SDS011;67354;48.068;11.612;2023-02-15T13:33:22;12.43;;;8.52;;
78108;SDS011;67354;48.068;11.612;2023-02-15T13:41:25;12.15;;;8.88;;
78108;SDS011;67354;48.068;11.612;2023-02-15T13:49:05;11.75;;;8.10;;
78108;SDS011;67354;48.068;11.612;2023-02-15T14:10:32;12.95;;;9.23;;
78108;SDS011;67354;48.068;11.612;2023-02-15T14:18:27;14.55;;;9.13;;
78108;SDS011;67354;48.068;11.612;2023-02-15T14:21:14;17.35;;;10.48;;
78108;SDS011;67354;48.068;11.612;2023-02-15T14:23:49;16.55;;;10.10;;
78108;SDS011;67354;48.068;11.612;2023-02-15T14:31:41;14.85;;;10.02;;
78108;SDS011;67354;48.068;11.612;2023-02-15T14:34:19;16.73;;;10.50;;
78108;SDS011;67354;48.068;11.612;2023-02-15T14:36:48;15.90;;;10.13;;
78108;SDS011;67354;48.068;11.612;2023-02-15T14:39:22;14.50;;;10.48;;
78108;SDS011;67354;48.068;11.612;2023-02-15T14:45:24;17.08;;;10.63;;
78108;SDS011;67354;48.068;11.612;2023-02-15T14:48:03;16.48;;;11.18;;
78108;SDS011;67354;48.068;11.612;2023-02-15T14:50:46;17.00;;;9.88;;
78108;SDS011;67354;48.068;11.612;2023-02-15T14:53:16;19.10;;;11.05;;
78108;SDS011;67354;48.068;11.612;2023-02-15T14:55:57;15.82;;;9.95;;
78108;SDS011;67354;48.068;11.612;2023-02-15T14:58:29;15.52;;;11.05;;
78108;SDS011;67354;48.068;11.612;2023-02-15T15:00:55;15.02;;;10.52;;
78108;SDS011;67354;48.068;11.612;2023-02-15T15:03:30;16.35;;;12.57;;
78108;SDS011;67354;48.068;11.612;2023-02-15T15:05:56;15.30;;;11.30;;
78108;SDS011;67354;48.068;11.612;2023-02-15T15:11:36;17.10;;;11.32;;
78108;SDS011;67354;48.068;11.612;2023-02-15T15:13:56;14.85;;;11.60;;
78108;SDS011;67354;48.068;11.612;2023-02-15T15:18:51;18.27;;;11.52;;
78108;SDS011;67354;48.068;11.612;2023-02-15T15:35:36;18.77;;;11.85;;
78108;SDS011;67354;48.068;11.612;2023-02-15T15:49:21;17.45;;;12.02;;
78108;SDS011;67354;48.068;11.612;2023-02-15T15:51:49;18.98;;;12.65;;
78108;SDS011;67354;48.068;11.612;2023-02-15T15:54:16;20.88;;;13.93;;
78108;SDS011;67354;48.068;11.612;2023-02-15T15:56:44;20.02;;;12.98;;
78108;SDS011;67354;48.068;11.612;2023-02-15T15:59:22;18.10;;;12.70;;
78108;SDS011;67354;48.068;11.612;2023-02-15T16:01:49;18.08;;;12.68;;
78108;SDS011;67354;48.068;11.612;2023-02-15T16:04:31;19.80;;;13.75;;
78108;SDS011;67354;48.068;11.612;2023-02-15T16:06:57;20.58;;;13.40;;
78108;SDS011;67354;48.068;11.612;2023-02-15T16:09:27;21.70;;;14.25;;
78108;SDS011;67354;48.068;11.612;2023-02-15T16:11:58;21.40;;;14.18;;
78108;SDS011;67354;48.068;11.612;2023-02-15T16:17:00;22.98;;;14.27;;
78108;SDS011;67354;48.068;11.612;2023-02-15T16:19:28;20.83;;;13.48;;
78108;SDS011;67354;48.068;11.612;2023-02-15T16:27:36;23.00;;;13.80;;
78108;SDS011;67354;48.068;11.612;2023-02-15T16:30:19;23.75;;;14.40;;
78108;SDS011;67354;48.068;11.612;2023-02-15T16:35:30;18.52;;;12.93;;
78108;SDS011;67354;48.068;11.612;2023-02-15T16:37:55;19.20;;;13.63;;
78108;SDS011;67354;48.068;11.612;2023-02-15T16:42:57;23.02;;;14.65;;
78108;SDS011;67354;48.068;11.612;2023-02-15T16:45:26;19.90;;;12.93;;
78108;SDS011;67354;48.068;11.612;2023-02-15T16:47:53;22.00;;;13.05;;
78108;SDS011;67354;48.068;11.612;2023-02-15T16:50:32;22.67;;;13.82;;
78108;SDS011;67354;48.068;11.612;2023-02-15T16:52:58;21.52;;;13.23;;
78108;SDS011;67354;48.068;11.612;2023-02-15T16:55:25;22.45;;;13.25;;
78108;SDS011;67354;48.068;11.612;2023-02-15T16:57:51;24.77;;;14.32;;
78108;SDS011;67354;48.068;11.612;2023-02-15T17:00:24;19.63;;;13.27;;
78108;SDS011;67354;48.068;11.612;2023-02-15T17:03:04;20.38;;;13.98;;
78108;SDS011;67354;48.068;11.612;2023-02-15T17:05:32;21.35;;;13.10;;
78108;SDS011;67354;48.068;11.612;2023-02-15T17:08:10;21.88;;;12.80;;
78108;SDS011;67354;48.068;11.612;2023-02-15T17:10:39;19.38;;;12.68;;
78108;SDS011;67354;48.068;11.612;2023-02-15T17:13:16;20.08;;;13.43;;
78108;SDS011;67354;48.068;11.612;2023-02-15T17:15:42;21.20;;;12.63;;
78108;SDS011;67354;48.068;11.612;2023-02-15T17:18:11;20.52;;;13.68;;
78108;SDS011;67354;48.068;11.612;2023-02-15T17:20:39;19.80;;;12.45;;
78108;SDS011;67354;48.068;11.612;2023-02-15T17:23:07;23.50;;;14.57;;
78108;SDS011;67354;48.068;11.612;2023-02-15T17:25:45;23.73;;;15.02;;
78108;SDS011;67354;48.068;11.612;2023-02-15T17:28:20;24.10;;;15.55;;
78108;SDS011;67354;48.068;11.612;2023-02-15T17:30:48;23.10;;;15.02;;
78108;SDS011;67354;48.068;11.612;2023-02-15T17:33:19;23.88;;;14.45;;
78108;SDS011;67354;48.068;11.612;2023-02-15T17:35:45;26.27;;;15.55;;
78108;SDS011;67354;48.068;11.612;2023-02-15T17:38:33;26.35;;;15.75;;
78108;SDS011;67354;48.068;11.612;2023-02-15T17:40:59;27.27;;;15.38;;
78108;SDS011;67354;48.068;11.612;2023-02-15T17:43:25;31.08;;;15.45;;
78108;SDS011;67354;48.068;11.612;2023-02-15T17:45:50;23.85;;;14.25;;
78108;SDS011;67354;48.068;11.612;2023-02-15T17:51:01;27.15;;;15.98;;
78108;SDS011;67354;48.068;11.612;2023-02-15T17:53:27;26.60;;;14.43;;
78108;SDS011;67354;48.068;11.612;2023-02-15T17:55:52;31.40;;;14.32;;
78108;SDS011;67354;48.068;11.612;2023-02-15T17:58:18;31.47;;;14.67;;
78108;SDS011;67354;48.068;11.612;2023-02-15T18:00:45;26.08;;;14.82;;
78108;SDS011;67354;48.068;11.612;2023-02-15T18:06:31;26.90;;;14.85;;
78108;SDS011;67354;48.068;11.612;2023-02-15T18:09:16;27.83;;;15.95;;
78108;SDS011;67354;48.068;11.612;2023-02-15T18:12:02;26.30;;;16.50;;
78108;SDS011;67354;48.068;11.612;2023-02-15T18:14:29;28.10;;;15.18;;
78108;SDS011;67354;48.068;11.612;2023-02-15T18:16:55;24.88;;;14.65;;
78108;SDS011;67354;48.068;11.612;2023-02-15T18:19:22;27.23;;;15.63;;
78108;SDS011;67354;48.068;11.612;2023-02-15T18:21:51;33.67;;;14.85;;
78108;SDS011;67354;48.068;11.612;2023-02-15T18:24:24;35.05;;;15.00;;
78108;SDS011;67354;48.068;11.612;2023-02-15T18:26:50;25.35;;;13.98;;
78108;SDS011;67354;48.068;11.612;2023-02-15T18:29:16;22.35;;;13.07;;
78108;SDS011;67354;48.068;11.612;2023-02-15T18:31:42;26.88;;;14.75;;
78108;SDS011;67354;48.068;11.612;2023-02-15T18:34:14;22.35;;;13.43;;
78108;SDS011;67354;48.068;11.612;2023-02-15T18:41:51;23.90;;;14.35;;
78108;SDS011;67354;48.068;11.612;2023-02-15T18:44:16;25.85;;;14.93;;
78108;SDS011;67354;48.068;11.612;2023-02-15T18:46:42;29.92;;;14.50;;
78108;SDS011;67354;48.068;11.612;2023-02-15T18:49:07;27.85;;;13.85;;
78108;SDS011;67354;48.068;11.612;2023-02-15T18:51:32;25.70;;;14.68;;
78108;SDS011;67354;48.068;11.612;2023-02-15T18:54:03;29.55;;;15.38;;
78108;SDS011;67354;48.068;11.612;2023-02-15T18:56:29;25.88;;;15.65;;
78108;SDS011;67354;48.068;11.612;2023-02-15T18:58:55;21.50;;;14.48;;
78108;SDS011;67354;48.068;11.612;2023-02-15T19:01:20;18.80;;;13.47;;
78108;SDS011;67354;48.068;11.612;2023-02-15T19:03:46;20.98;;;12.98;;
78108;SDS011;67354;48.068;11.612;2023-02-15T19:06:13;20.33;;;13.43;;
78108;SDS011;67354;48.068;11.612;2023-02-15T19:08:40;28.02;;;12.68;;
78108;SDS011;67354;48.068;11.612;2023-02-15T19:11:15;19.92;;;12.13;;
78108;SDS011;67354;48.068;11.612;2023-02-15T19:13:42;18.33;;;12.25;;
78108;SDS011;67354;48.068;11.612;2023-02-15T19:16:12;20.48;;;12.95;;
78108;SDS011;67354;48.068;11.612;2023-02-15T19:18:43;21.20;;;12.50;;
78108;SDS011;67354;48.068;11.612;2023-02-15T19:21:11;28.30;;;14.80;;
78108;SDS011;67354;48.068;11.612;2023-02-15T19:23:42;28.98;;;15.68;;
78108;SDS011;67354;48.068;11.612;2023-02-15T19:26:09;28.02;;;14.95;;
78108;SDS011;67354;48.068;11.612;2023-02-15T19:28:34;26.17;;;14.32;;
78108;SDS011;67354;48.068;11.612;2023-02-15T19:31:00;31.42;;;14.95;;
78108;SDS011;67354;48.068;11.612;2023-02-15T19:33:25;25.90;;;15.75;;
78108;SDS011;67354;48.068;11.612;2023-02-15T19:35:51;21.77;;;13.70;;
78108;SDS011;67354;48.068;11.612;2023-02-15T19:38:24;30.55;;;15.02;;
78108;SDS011;67354;48.068;11.612;2023-02-15T19:40:51;32.22;;;15.75;;
78108;SDS011;67354;48.068;11.612;2023-02-15T19:43:17;21.85;;;14.85;;
78108;SDS011;67354;48.068;11.612;2023-02-15T19:45:44;22.25;;;14.52;;
78108;SDS011;67354;48.068;11.612;2023-02-15T19:48:13;21.15;;;13.40;;
78108;SDS011;67354;48.068;11.612;2023-02-15T19:50:39;22.17;;;15.55;;
78108;SDS011;67354;48.068;11.612;2023-02-15T19:53:04;17.98;;;13.68;;
78108;SDS011;67354;48.068;11.612;2023-02-15T19:55:31;22.20;;;13.93;;
78108;SDS011;67354;48.068;11.612;2023-02-15T19:57:58;19.25;;;13.90;;
78108;SDS011;67354;48.068;11.612;2023-02-15T20:00:25;23.23;;;14.52;;
78108;SDS011;67354;48.068;11.612;2023-02-15T20:02:53;20.30;;;13.57;;
78108;SDS011;67354;48.068;11.612;2023-02-15T20:05:19;22.45;;;13.73;;
78108;SDS011;67354;48.068;11.612;2023-02-15T20:07:46;21.75;;;13.57;;
78108;SDS011;67354;48.068;11.612;2023-02-15T20:10:13;32.88;;;15.80;;
78108;SDS011;67354;48.068;11.612;2023-02-15T20:12:46;22.67;;;14.85;;
78108;SDS011;67354;48.068;11.612;2023-02-15T20:15:19;20.90;;;14.80;;
78108;SDS011;67354;48.068;11.612;2023-02-15T20:17:45;26.40;;;15.40;;
78108;SDS011;67354;48.068;11.612;2023-02-15T20:20:11;22.67;;;14.82;;
78108;SDS011;67354;48.068;11.612;2023-02-15T20:22:37;24.15;;;15.68;;
78108;SDS011;67354;48.068;11.612;2023-02-15T20:25:04;22.92;;;14.73;;
78108;SDS011;67354;48.068;11.612;2023-02-15T20:27:30;20.35;;;13.55;;
78108;SDS011;67354;48.068;11.612;2023-02-15T20:29:55;21.48;;;14.07;;
78108;SDS011;67354;48.068;11.612;2023-02-15T20:32:21;20.13;;;12.90;;
78108;SDS011;67354;48.068;11.612;2023-02-15T20:34:47;20.35;;;12.95;;
78108;SDS011;67354;48.068;11.612;2023-02-15T20:37:17;27.95;;;13.32;;
78108;SDS011;67354;48.068;11.612;2023-02-15T20:39:47;19.83;;;12.70;;
78108;SDS011;67354;48.068;11.612;2023-02-15T20:42:12;27.73;;;13.32;;
78108;SDS011;67354;48.068;11.612;2023-02-15T20:44:43;18.83;;;13.07;;
78108;SDS011;67354;48.068;11.612;2023-02-15T20:47:08;21.83;;;12.85;;
78108;SDS011;67354;48.068;11.612;2023-02-15T20:49:34;22.15;;;12.77;;
78108;SDS011;67354;48.068;11.612;2023-02-15T20:51:59;17.90;;;12.65;;
78108;SDS011;67354;48.068;11.612;2023-02-15T20:54:31;22.23;;;12.80;;
78108;SDS011;67354;48.068;11.612;2023-02-15T20:56:58;18.80;;;12.68;;
78108;SDS011;67354;48.068;11.612;2023-02-15T20:59:27;20.83;;;13.88;;
78108;SDS011;67354;48.068;11.612;2023-02-15T21:01:57;19.25;;;12.70;;
78108;SDS011;67354;48.068;11.612;2023-02-15T21:04:30;18.67;;;13.52;;
78108;SDS011;67354;48.068;11.612;2023-02-15T21:06:57;24.23;;;13.77;;
78108;SDS011;67354;48.068;11.612;2023-02-15T21:09:25;18.63;;;12.60;;
78108;SDS011;67354;48.068;11.612;2023-02-15T21:11:52;22.60;;;14.75;;
78108;SDS011;67354;48.068;11.612;2023-02-15T21:14:19;23.05;;;15.30;;
78108;SDS011;67354;48.068;11.612;2023-02-15T21:16:45;21.67;;;14.35;;
78108;SDS011;67354;48.068;11.612;2023-02-15T21:19:15;18.60;;;13.23;;
78108;SDS011;67354;48.068;11.612;2023-02-15T21:21:45;23.20;;;15.57;;
78108;SDS011;67354;48.068;11.612;2023-02-15T21:24:12;17.13;;;13.20;;
78108;SDS011;67354;48.068;11.612;2023-02-15T21:26:40;22.17;;;14.25;;
78108;SDS011;67354;48.068;11.612;2023-02-15T21:29:12;18.38;;;13.70;;
78108;SDS011;67354;48.068;11.612;2023-02-15T21:31:41;21.70;;;13.75;;
78108;SDS011;67354;48.068;11.612;2023-02-15T21:34:07;23.17;;;14.07;;
78108;SDS011;67354;48.068;11.612;2023-02-15T21:36:32;20.77;;;14.45;;
78108;SDS011;67354;48.068;11.612;2023-02-15T21:38:58;21.00;;;13.20;;
78108;SDS011;67354;48.068;11.612;2023-02-15T21:41:23;21.58;;;13.50;;
78108;SDS011;67354;48.068;11.612;2023-02-15T21:44:13;22.05;;;14.90;;
78108;SDS011;67354;48.068;11.612;2023-02-15T21:47:02;21.55;;;14.60;;
78108;SDS011;67354;48.068;11.612;2023-02-15T21:49:46;23.67;;;14.93;;
78108;SDS011;67354;48.068;11.612;2023-02-15T21:52:12;25.20;;;15.25;;
78108;SDS011;67354;48.068;11.612;2023-02-15T21:54:39;22.85;;;16.45;;
78108;SDS011;67354;48.068;11.612;2023-02-15T21:57:05;22.98;;;16.58;;
78108;SDS011;67354;48.068;11.612;2023-02-15T21:59:33;25.25;;;15.27;;
78108;SDS011;67354;48.068;11.612;2023-02-15T22:01:58;18.42;;;13.23;;
78108;SDS011;67354;48.068;11.612;2023-02-15T22:06:51;18.90;;;13.10;;
78108;SDS011;67354;48.068;11.612;2023-02-15T22:09:18;17.67;;;12.48;;
78108;SDS011;67354;48.068;11.612;2023-02-15T22:16:57;18.08;;;12.05;;
78108;SDS011;67354;48.068;11.612;2023-02-15T22:19:23;16.90;;;12.43;;
78108;SDS011;67354;48.068;11.612;2023-02-15T22:21:48;15.67;;;11.90;;
78108;SDS011;67354;48.068;11.612;2023-02-15T22:24:13;19.20;;;13.73;;
78108;SDS011;67354;48.068;11.612;2023-02-15T22:26:39;22.37;;;14.60;;
78108;SDS011;67354;48.068;11.612;2023-02-15T22:29:04;22.38;;;15.45;;
78108;SDS011;67354;48.068;11.612;2023-02-15T22:31:29;21.02;;;14.85;;
78108;SDS011;67354;48.068;11.612;2023-02-15T22:33:55;22.92;;;14.60;;
78108;SDS011;67354;48.068;11.612;2023-02-15T22:36:21;19.47;;;15.07;;
78108;SDS011;67354;48.068;11.612;2023-02-15T22:38:49;22.15;;;15.35;;
78108;SDS011;67354;48.068;11.612;2023-02-15T22:41:14;20.50;;;14.77;;
78108;SDS011;67354;48.068;11.612;2023-02-15T22:43:40;19.40;;;13.13;;
78108;SDS011;67354;48.068;11.612;2023-02-15T22:46:17;18.20;;;13.38;;
78108;SDS011;67354;48.068;11.612;2023-02-15T22:48:45;22.58;;;14.15;;
78108;SDS011;67354;48.068;11.612;2023-02-15T22:51:14;21.63;;;14.35;;
78108;SDS011;67354;48.068;11.612;2023-02-15T22:53:41;21.23;;;14.20;;
78108;SDS011;67354;48.068;11.612;2023-02-15T22:56:07;19.70;;;14.50;;
78108;SDS011;67354;48.068;11.612;2023-02-15T22:58:36;19.85;;;14.30;;
78108;SDS011;67354;48.068;11.612;2023-02-15T23:01:02;17.17;;;13.23;;
78108;SDS011;67354;48.068;11.612;2023-02-15T23:03:29;21.90;;;13.52;;
78108;SDS011;67354;48.068;11.612;2023-02-15T23:05:57;20.02;;;13.82;;
78108;SDS011;67354;48.068;11.612;2023-02-15T23:08:22;19.13;;;12.88;;
78108;SDS011;67354;48.068;11.612;2023-02-15T23:10:50;21.73;;;12.97;;
78108;SDS011;67354;48.068;11.612;2023-02-15T23:13:21;17.88;;;11.80;;
78108;SDS011;67354;48.068;11.612;2023-02-15T23:15:49;18.23;;;12.18;;
78108;SDS011;67354;48.068;11.612;2023-02-15T23:18:19;16.65;;;11.77;;
78108;SDS011;67354;48.068;11.612;2023-02-15T23:20:53;18.33;;;11.45;;
78108;SDS011;67354;48.068;11.612;2023-02-15T23:23:23;15.85;;;11.13;;
78108;SDS011;67354;48.068;11.612;2023-02-15T23:25:53;17.40;;;10.63;;
78108;SDS011;67354;48.068;11.612;2023-02-15T23:28:20;17.15;;;11.73;;
78108;SDS011;67354;48.068;11.612;2023-02-15T23:30:48;16.75;;;11.73;;
78108;SDS011;67354;48.068;11.612;2023-02-15T23:33:13;15.13;;;10.02;;
78108;SDS011;67354;48.068;11.612;2023-02-15T23:35:39;19.20;;;11.40;;
78108;SDS011;67354;48.068;11.612;2023-02-15T23:38:26;16.52;;;10.38;;
78108;SDS011;67354;48.068;11.612;2023-02-15T23:40:52;17.05;;;10.00;;
78108;SDS011;67354;48.068;11.612;2023-02-15T23:43:39;19.25;;;10.90;;
78108;SDS011;67354;48.068;11.612;2023-02-15T23:46:07;18.38;;;11.80;;
78108;SDS011;67354;48.068;11.612;2023-02-15T23:48:34;18.00;;;11.35;;
78108;SDS011;67354;48.068;11.612;2023-02-15T23:51:01;17.08;;;10.32;;
78108;SDS011;67354;48.068;11.612;2023-02-15T23:53:27;16.95;;;10.90;;
78108;SDS011;67354;48.068;11.612;2023-02-15T23:55:52;16.20;;;10.30;;
78108;SDS011;67354;48.068;11.612;2023-02-15T23:58:19;17.38;;;10.60;;
